LiveATC.Net - Listen to live air traffic control over the Internet!


ICAO: KHMT  IATA: HMT   Airport: Hemet-Ryan Airport
City: Hemet   State/Province: California
Country: United States   Continent: North America
KHMT METAR Weather: KHMT 010655Z AUTO 00000KT 10SM OVC017 09/07 A3003 RMK AO2 T00870071
KHMT ADS-B Flight Tracking (ADSBExchange)
KHMT Flight Activity (FlightAware)
KHMT Airport Info   (iFlightPlanner)
KHMT VFR Sectional Chart   (iFlightPlanner) 
KHMT IFR Low Altitude Chart   (iFlightPlanner) 
KHMT IFR High Altitude Chart   (iFlightPlanner) 

KHMT CTAF
Feed Status: UP   Listeners: 0
Listen in your browser - HTML5 player (in browser, HTML5)
Click here to listen with your own player (launches your MP3 player)
Archive Access: KHMT CTAF
FacilityFrequency
Hemet CTAF123.000

NOTICE

Unauthorized use prohibited. See LiveATC.net Terms of Service


Airport/ARTCC Code
Frequency Search
(e.g., 124.400, 128.75)
Site-wide search
 


Browse Feeds
Top 50 Feeds
HF Oceanic Feeds
Coverage Map
Bad Weather Areas

LiveATC FAQ
Offer LiveATC feed
Contact LiveATC.net
Press Inquiries

LiveATC on iPhone
LiveATC on Android

LiveATC Mobile
(Mobile browser)

ATC Audio Archives
Interesting Recordings

LiveATC Forums


Home Page
About LiveATC.net


Terms of Use
Privacy Policy

AIRMETs/SIGMETs

FAA Airport Status
NAS Status
Arrival Demand


Server Software By:
Icecast.org
Liquidsoap